sensor_id;sensor_type;location;lat;lon;timestamp;P1;durP1;ratioP1;P2;durP2;ratioP2
83465;SDS011;73393;51.946;20.140;2024-01-27T00:01:36;5.20;;;1.50;;
83465;SDS011;73393;51.946;20.140;2024-01-27T00:04:02;7.47;;;2.60;;
83465;SDS011;73393;51.946;20.140;2024-01-27T00:06:28;5.33;;;1.90;;
83465;SDS011;73393;51.946;20.140;2024-01-27T00:08:53;5.83;;;1.13;;
83465;SDS011;73393;51.946;20.140;2024-01-27T00:11:19;5.53;;;1.47;;
83465;SDS011;73393;51.946;20.140;2024-01-27T00:13:45;7.70;;;1.50;;
83465;SDS011;73393;51.946;20.140;2024-01-27T00:16:11;6.43;;;1.50;;
83465;SDS011;73393;51.946;20.140;2024-01-27T00:18:36;4.70;;;1.47;;
83465;SDS011;73393;51.946;20.140;2024-01-27T00:21:03;7.80;;;2.33;;
83465;SDS011;73393;51.946;20.140;2024-01-27T00:23:29;5.17;;;1.57;;
83465;SDS011;73393;51.946;20.140;2024-01-27T00:25:55;8.00;;;1.70;;
83465;SDS011;73393;51.946;20.140;2024-01-27T00:28:20;13.30;;;2.70;;
83465;SDS011;73393;51.946;20.140;2024-01-27T00:30:46;4.57;;;1.57;;
83465;SDS011;73393;51.946;20.140;2024-01-27T00:33:11;6.40;;;2.37;;
83465;SDS011;73393;51.946;20.140;2024-01-27T00:35:37;5.90;;;1.60;;
83465;SDS011;73393;51.946;20.140;2024-01-27T00:38:03;8.33;;;2.17;;
83465;SDS011;73393;51.946;20.140;2024-01-27T00:40:28;6.30;;;2.33;;
83465;SDS011;73393;51.946;20.140;2024-01-27T00:42:54;7.53;;;2.30;;
83465;SDS011;73393;51.946;20.140;2024-01-27T00:45:20;9.97;;;1.80;;
83465;SDS011;73393;51.946;20.140;2024-01-27T00:47:47;7.10;;;1.90;;
83465;SDS011;73393;51.946;20.140;2024-01-27T00:50:14;5.80;;;1.93;;
83465;SDS011;73393;51.946;20.140;2024-01-27T00:52:40;9.90;;;2.20;;
83465;SDS011;73393;51.946;20.140;2024-01-27T00:55:06;9.03;;;2.33;;
83465;SDS011;73393;51.946;20.140;2024-01-27T00:57:32;13.23;;;3.23;;
83465;SDS011;73393;51.946;20.140;2024-01-27T00:59:57;13.83;;;2.33;;
83465;SDS011;73393;51.946;20.140;2024-01-27T01:02:23;5.07;;;2.50;;
83465;SDS011;73393;51.946;20.140;2024-01-27T01:04:48;8.07;;;2.50;;
83465;SDS011;73393;51.946;20.140;2024-01-27T01:07:14;8.83;;;2.50;;
83465;SDS011;73393;51.946;20.140;2024-01-27T01:09:40;12.03;;;2.37;;
83465;SDS011;73393;51.946;20.140;2024-01-27T01:12:05;8.97;;;2.67;;
83465;SDS011;73393;51.946;20.140;2024-01-27T01:14:31;9.60;;;2.37;;
83465;SDS011;73393;51.946;20.140;2024-01-27T01:16:57;14.50;;;3.63;;
83465;SDS011;73393;51.946;20.140;2024-01-27T01:19:23;5.60;;;3.10;;
83465;SDS011;73393;51.946;20.140;2024-01-27T01:21:48;10.63;;;1.77;;
83465;SDS011;73393;51.946;20.140;2024-01-27T01:24:14;9.50;;;1.97;;
83465;SDS011;73393;51.946;20.140;2024-01-27T01:26:39;9.27;;;2.53;;
83465;SDS011;73393;51.946;20.140;2024-01-27T01:29:05;5.43;;;1.97;;
83465;SDS011;73393;51.946;20.140;2024-01-27T01:31:31;12.30;;;3.43;;
83465;SDS011;73393;51.946;20.140;2024-01-27T01:33:56;7.23;;;2.30;;
83465;SDS011;73393;51.946;20.140;2024-01-27T01:36:22;13.03;;;3.27;;
83465;SDS011;73393;51.946;20.140;2024-01-27T01:38:47;15.87;;;6.13;;
83465;SDS011;73393;51.946;20.140;2024-01-27T01:41:13;14.73;;;5.80;;
83465;SDS011;73393;51.946;20.140;2024-01-27T01:43:39;17.20;;;6.53;;
83465;SDS011;73393;51.946;20.140;2024-01-27T01:46:04;13.37;;;5.73;;
83465;SDS011;73393;51.946;20.140;2024-01-27T01:48:30;11.27;;;4.90;;
83465;SDS011;73393;51.946;20.140;2024-01-27T01:50:56;13.60;;;3.33;;
83465;SDS011;73393;51.946;20.140;2024-01-27T01:53:23;8.90;;;2.43;;
83465;SDS011;73393;51.946;20.140;2024-01-27T01:55:49;10.47;;;2.77;;
83465;SDS011;73393;51.946;20.140;2024-01-27T01:58:15;9.60;;;2.50;;
83465;SDS011;73393;51.946;20.140;2024-01-27T02:00:41;6.53;;;2.60;;
83465;SDS011;73393;51.946;20.140;2024-01-27T02:03:11;6.83;;;2.37;;
83465;SDS011;73393;51.946;20.140;2024-01-27T02:05:37;11.03;;;3.10;;
83465;SDS011;73393;51.946;20.140;2024-01-27T02:08:03;8.90;;;2.93;;
83465;SDS011;73393;51.946;20.140;2024-01-27T02:10:29;9.57;;;2.90;;
83465;SDS011;73393;51.946;20.140;2024-01-27T02:15:41;11.13;;;2.80;;
83465;SDS011;73393;51.946;20.140;2024-01-27T02:18:07;13.63;;;3.00;;
83465;SDS011;73393;51.946;20.140;2024-01-27T02:20:32;6.90;;;3.93;;
83465;SDS011;73393;51.946;20.140;2024-01-27T02:22:58;10.40;;;3.37;;
83465;SDS011;73393;51.946;20.140;2024-01-27T02:25:23;14.07;;;2.80;;
83465;SDS011;73393;51.946;20.140;2024-01-27T02:27:49;11.53;;;3.23;;
83465;SDS011;73393;51.946;20.140;2024-01-27T02:30:14;11.03;;;3.17;;
83465;SDS011;73393;51.946;20.140;2024-01-27T02:32:40;6.43;;;2.47;;
83465;SDS011;73393;51.946;20.140;2024-01-27T02:35:06;8.93;;;2.23;;
83465;SDS011;73393;51.946;20.140;2024-01-27T02:37:32;10.50;;;2.73;;
83465;SDS011;73393;51.946;20.140;2024-01-27T02:39:58;10.80;;;2.63;;
83465;SDS011;73393;51.946;20.140;2024-01-27T02:42:23;11.07;;;4.10;;
83465;SDS011;73393;51.946;20.140;2024-01-27T02:44:49;15.87;;;3.23;;
83465;SDS011;73393;51.946;20.140;2024-01-27T02:47:15;12.53;;;2.73;;
83465;SDS011;73393;51.946;20.140;2024-01-27T02:49:40;8.90;;;3.20;;
83465;SDS011;73393;51.946;20.140;2024-01-27T02:52:06;12.40;;;3.57;;
83465;SDS011;73393;51.946;20.140;2024-01-27T02:54:32;14.97;;;2.93;;
83465;SDS011;73393;51.946;20.140;2024-01-27T02:56:57;14.47;;;4.60;;
83465;SDS011;73393;51.946;20.140;2024-01-27T02:59:23;16.13;;;5.57;;
83465;SDS011;73393;51.946;20.140;2024-01-27T03:01:48;20.37;;;5.47;;
83465;SDS011;73393;51.946;20.140;2024-01-27T03:04:14;14.67;;;6.93;;
83465;SDS011;73393;51.946;20.140;2024-01-27T03:06:39;17.50;;;7.13;;
83465;SDS011;73393;51.946;20.140;2024-01-27T03:09:05;12.93;;;4.67;;
83465;SDS011;73393;51.946;20.140;2024-01-27T03:11:30;22.13;;;8.17;;
83465;SDS011;73393;51.946;20.140;2024-01-27T03:13:56;20.57;;;7.80;;
83465;SDS011;73393;51.946;20.140;2024-01-27T03:16:22;15.93;;;6.00;;
83465;SDS011;73393;51.946;20.140;2024-01-27T03:18:47;14.23;;;5.73;;
83465;SDS011;73393;51.946;20.140;2024-01-27T03:21:13;11.13;;;3.80;;
83465;SDS011;73393;51.946;20.140;2024-01-27T03:23:39;7.80;;;2.93;;
83465;SDS011;73393;51.946;20.140;2024-01-27T03:26:04;10.57;;;2.67;;
83465;SDS011;73393;51.946;20.140;2024-01-27T03:28:30;7.37;;;2.83;;
83465;SDS011;73393;51.946;20.140;2024-01-27T03:30:55;7.83;;;2.20;;
83465;SDS011;73393;51.946;20.140;2024-01-27T03:33:21;10.03;;;3.23;;
83465;SDS011;73393;51.946;20.140;2024-01-27T03:35:47;10.40;;;3.33;;
83465;SDS011;73393;51.946;20.140;2024-01-27T03:38:13;8.50;;;2.33;;
83465;SDS011;73393;51.946;20.140;2024-01-27T03:40:39;8.80;;;2.90;;
83465;SDS011;73393;51.946;20.140;2024-01-27T03:43:04;6.90;;;1.70;;
83465;SDS011;73393;51.946;20.140;2024-01-27T03:45:30;8.37;;;2.50;;
83465;SDS011;73393;51.946;20.140;2024-01-27T03:47:55;11.07;;;2.50;;
83465;SDS011;73393;51.946;20.140;2024-01-27T03:50:21;7.27;;;2.87;;
83465;SDS011;73393;51.946;20.140;2024-01-27T03:52:46;4.60;;;2.33;;
83465;SDS011;73393;51.946;20.140;2024-01-27T03:55:12;9.07;;;2.50;;
83465;SDS011;73393;51.946;20.140;2024-01-27T03:57:37;10.13;;;3.00;;
83465;SDS011;73393;51.946;20.140;2024-01-27T04:00:03;12.87;;;3.37;;
83465;SDS011;73393;51.946;20.140;2024-01-27T04:02:29;8.17;;;2.83;;
83465;SDS011;73393;51.946;20.140;2024-01-27T04:04:55;12.77;;;3.63;;
83465;SDS011;73393;51.946;20.140;2024-01-27T04:07:20;8.97;;;3.17;;
83465;SDS011;73393;51.946;20.140;2024-01-27T04:09:46;17.47;;;3.30;;
83465;SDS011;73393;51.946;20.140;2024-01-27T04:12:11;10.73;;;3.13;;
83465;SDS011;73393;51.946;20.140;2024-01-27T04:14:37;13.00;;;3.10;;
83465;SDS011;73393;51.946;20.140;2024-01-27T04:17:02;11.73;;;2.90;;
83465;SDS011;73393;51.946;20.140;2024-01-27T04:19:28;16.27;;;3.67;;
83465;SDS011;73393;51.946;20.140;2024-01-27T04:21:54;9.40;;;3.93;;
83465;SDS011;73393;51.946;20.140;2024-01-27T04:24:19;13.37;;;5.40;;
83465;SDS011;73393;51.946;20.140;2024-01-27T04:26:45;15.00;;;5.17;;
83465;SDS011;73393;51.946;20.140;2024-01-27T04:29:10;11.77;;;4.47;;
83465;SDS011;73393;51.946;20.140;2024-01-27T04:31:40;12.73;;;4.23;;
83465;SDS011;73393;51.946;20.140;2024-01-27T04:34:06;8.50;;;3.03;;
83465;SDS011;73393;51.946;20.140;2024-01-27T04:36:32;9.70;;;4.27;;
83465;SDS011;73393;51.946;20.140;2024-01-27T04:38:58;13.23;;;3.50;;
83465;SDS011;73393;51.946;20.140;2024-01-27T04:41:23;8.93;;;2.77;;
83465;SDS011;73393;51.946;20.140;2024-01-27T04:43:49;15.37;;;3.00;;
83465;SDS011;73393;51.946;20.140;2024-01-27T04:46:15;8.27;;;2.70;;
83465;SDS011;73393;51.946;20.140;2024-01-27T04:48:40;13.10;;;2.23;;
83465;SDS011;73393;51.946;20.140;2024-01-27T04:51:06;7.20;;;2.33;;
83465;SDS011;73393;51.946;20.140;2024-01-27T04:53:31;9.63;;;3.30;;
83465;SDS011;73393;51.946;20.140;2024-01-27T04:55:57;10.93;;;3.60;;
83465;SDS011;73393;51.946;20.140;2024-01-27T04:58:23;11.90;;;2.77;;
83465;SDS011;73393;51.946;20.140;2024-01-27T05:00:48;17.47;;;3.43;;
83465;SDS011;73393;51.946;20.140;2024-01-27T05:03:14;10.47;;;4.13;;
83465;SDS011;73393;51.946;20.140;2024-01-27T05:05:41;9.67;;;3.40;;
83465;SDS011;73393;51.946;20.140;2024-01-27T05:08:07;8.87;;;2.87;;
83465;SDS011;73393;51.946;20.140;2024-01-27T05:10:33;9.37;;;3.00;;
83465;SDS011;73393;51.946;20.140;2024-01-27T05:12:59;8.97;;;2.43;;
83465;SDS011;73393;51.946;20.140;2024-01-27T05:15:24;5.60;;;2.40;;
83465;SDS011;73393;51.946;20.140;2024-01-27T05:17:50;10.20;;;4.27;;
83465;SDS011;73393;51.946;20.140;2024-01-27T05:20:16;10.37;;;3.20;;
83465;SDS011;73393;51.946;20.140;2024-01-27T05:22:42;12.13;;;3.27;;
83465;SDS011;73393;51.946;20.140;2024-01-27T05:25:08;8.23;;;2.33;;
83465;SDS011;73393;51.946;20.140;2024-01-27T05:27:34;10.57;;;2.70;;
83465;SDS011;73393;51.946;20.140;2024-01-27T05:30:07;10.30;;;2.83;;
83465;SDS011;73393;51.946;20.140;2024-01-27T05:32:33;6.63;;;2.17;;
83465;SDS011;73393;51.946;20.140;2024-01-27T05:34:59;10.10;;;2.67;;
83465;SDS011;73393;51.946;20.140;2024-01-27T05:37:24;10.43;;;3.70;;
83465;SDS011;73393;51.946;20.140;2024-01-27T05:39:50;8.90;;;3.20;;
83465;SDS011;73393;51.946;20.140;2024-01-27T05:42:16;10.47;;;4.13;;
83465;SDS011;73393;51.946;20.140;2024-01-27T05:44:42;8.43;;;2.50;;
83465;SDS011;73393;51.946;20.140;2024-01-27T05:47:07;11.27;;;2.40;;
83465;SDS011;73393;51.946;20.140;2024-01-27T05:49:35;9.97;;;2.43;;
83465;SDS011;73393;51.946;20.140;2024-01-27T05:52:01;7.57;;;2.37;;
83465;SDS011;73393;51.946;20.140;2024-01-27T05:54:27;11.73;;;3.30;;
83465;SDS011;73393;51.946;20.140;2024-01-27T05:56:52;15.33;;;3.13;;
83465;SDS011;73393;51.946;20.140;2024-01-27T05:59:18;13.27;;;3.80;;
83465;SDS011;73393;51.946;20.140;2024-01-27T06:01:43;11.07;;;3.23;;
83465;SDS011;73393;51.946;20.140;2024-01-27T06:04:09;13.10;;;3.50;;
83465;SDS011;73393;51.946;20.140;2024-01-27T06:06:38;8.73;;;2.93;;
83465;SDS011;73393;51.946;20.140;2024-01-27T06:09:04;10.47;;;3.47;;
83465;SDS011;73393;51.946;20.140;2024-01-27T06:11:30;15.67;;;5.00;;
83465;SDS011;73393;51.946;20.140;2024-01-27T06:13:56;11.20;;;3.97;;
83465;SDS011;73393;51.946;20.140;2024-01-27T06:16:23;12.13;;;2.90;;
83465;SDS011;73393;51.946;20.140;2024-01-27T06:18:49;18.87;;;4.90;;
83465;SDS011;73393;51.946;20.140;2024-01-27T06:21:14;11.27;;;3.73;;
83465;SDS011;73393;51.946;20.140;2024-01-27T06:23:40;7.07;;;3.10;;
83465;SDS011;73393;51.946;20.140;2024-01-27T06:26:07;8.63;;;3.17;;
83465;SDS011;73393;51.946;20.140;2024-01-27T06:28:33;12.13;;;3.77;;
83465;SDS011;73393;51.946;20.140;2024-01-27T06:30:59;7.13;;;3.10;;
83465;SDS011;73393;51.946;20.140;2024-01-27T06:33:25;13.67;;;5.10;;
83465;SDS011;73393;51.946;20.140;2024-01-27T06:35:51;10.70;;;3.77;;
83465;SDS011;73393;51.946;20.140;2024-01-27T06:38:17;12.83;;;6.97;;
83465;SDS011;73393;51.946;20.140;2024-01-27T06:40:42;12.17;;;3.90;;
83465;SDS011;73393;51.946;20.140;2024-01-27T06:43:09;9.03;;;3.40;;
83465;SDS011;73393;51.946;20.140;2024-01-27T06:45:37;5.27;;;2.80;;
83465;SDS011;73393;51.946;20.140;2024-01-27T06:48:02;10.93;;;3.80;;
83465;SDS011;73393;51.946;20.140;2024-01-27T06:50:29;12.27;;;4.73;;
83465;SDS011;73393;51.946;20.140;2024-01-27T06:52:54;17.50;;;5.87;;
83465;SDS011;73393;51.946;20.140;2024-01-27T06:55:20;8.70;;;3.20;;
83465;SDS011;73393;51.946;20.140;2024-01-27T06:57:45;9.87;;;4.03;;
83465;SDS011;73393;51.946;20.140;2024-01-27T07:00:11;14.47;;;4.57;;
83465;SDS011;73393;51.946;20.140;2024-01-27T07:02:39;9.87;;;3.57;;
83465;SDS011;73393;51.946;20.140;2024-01-27T07:05:07;12.00;;;3.20;;
83465;SDS011;73393;51.946;20.140;2024-01-27T07:07:33;15.83;;;4.83;;
83465;SDS011;73393;51.946;20.140;2024-01-27T07:09:58;12.47;;;4.00;;
83465;SDS011;73393;51.946;20.140;2024-01-27T07:12:24;14.00;;;3.10;;
83465;SDS011;73393;51.946;20.140;2024-01-27T07:14:50;9.70;;;3.93;;
83465;SDS011;73393;51.946;20.140;2024-01-27T07:17:22;18.10;;;5.43;;
83465;SDS011;73393;51.946;20.140;2024-01-27T07:19:47;11.07;;;4.33;;
83465;SDS011;73393;51.946;20.140;2024-01-27T07:22:13;11.30;;;4.07;;
83465;SDS011;73393;51.946;20.140;2024-01-27T07:24:38;10.27;;;4.43;;
83465;SDS011;73393;51.946;20.140;2024-01-27T07:27:04;19.10;;;5.40;;
83465;SDS011;73393;51.946;20.140;2024-01-27T07:29:30;13.97;;;5.60;;
83465;SDS011;73393;51.946;20.140;2024-01-27T07:31:55;18.73;;;6.37;;
83465;SDS011;73393;51.946;20.140;2024-01-27T07:34:23;19.63;;;6.80;;
83465;SDS011;73393;51.946;20.140;2024-01-27T07:36:48;12.73;;;5.17;;
83465;SDS011;73393;51.946;20.140;2024-01-27T07:39:14;10.43;;;4.53;;
83465;SDS011;73393;51.946;20.140;2024-01-27T07:41:40;18.87;;;7.43;;
83465;SDS011;73393;51.946;20.140;2024-01-27T07:44:13;13.27;;;5.70;;
83465;SDS011;73393;51.946;20.140;2024-01-27T07:46:40;13.50;;;5.20;;
83465;SDS011;73393;51.946;20.140;2024-01-27T07:49:06;13.73;;;4.60;;
83465;SDS011;73393;51.946;20.140;2024-01-27T07:51:32;15.57;;;6.43;;
83465;SDS011;73393;51.946;20.140;2024-01-27T07:53:58;16.90;;;4.70;;
83465;SDS011;73393;51.946;20.140;2024-01-27T07:56:24;12.93;;;5.83;;
83465;SDS011;73393;51.946;20.140;2024-01-27T07:58:50;11.07;;;4.13;;
83465;SDS011;73393;51.946;20.140;2024-01-27T08:01:17;12.33;;;5.70;;
83465;SDS011;73393;51.946;20.140;2024-01-27T08:03:43;13.63;;;4.70;;
83465;SDS011;73393;51.946;20.140;2024-01-27T08:06:14;7.37;;;3.83;;
83465;SDS011;73393;51.946;20.140;2024-01-27T08:08:52;12.13;;;5.87;;
83465;SDS011;73393;51.946;20.140;2024-01-27T08:11:19;12.97;;;4.60;;
83465;SDS011;73393;51.946;20.140;2024-01-27T08:13:44;14.00;;;5.63;;
83465;SDS011;73393;51.946;20.140;2024-01-27T08:16:10;16.40;;;6.73;;
83465;SDS011;73393;51.946;20.140;2024-01-27T08:18:41;10.07;;;4.37;;
83465;SDS011;73393;51.946;20.140;2024-01-27T08:21:08;14.73;;;5.22;;
83465;SDS011;73393;51.946;20.140;2024-01-27T08:23:35;16.53;;;7.40;;
83465;SDS011;73393;51.946;20.140;2024-01-27T08:26:01;18.70;;;5.87;;
83465;SDS011;73393;51.946;20.140;2024-01-27T08:28:27;11.77;;;6.93;;
83465;SDS011;73393;51.946;20.140;2024-01-27T08:30:54;13.77;;;6.53;;
83465;SDS011;73393;51.946;20.140;2024-01-27T08:33:19;10.17;;;5.20;;
83465;SDS011;73393;51.946;20.140;2024-01-27T08:35:48;11.87;;;5.90;;
83465;SDS011;73393;51.946;20.140;2024-01-27T08:38:14;13.70;;;6.57;;
83465;SDS011;73393;51.946;20.140;2024-01-27T08:40:40;9.90;;;5.90;;
83465;SDS011;73393;51.946;20.140;2024-01-27T08:43:05;8.20;;;4.33;;
83465;SDS011;73393;51.946;20.140;2024-01-27T08:45:31;9.07;;;4.70;;
83465;SDS011;73393;51.946;20.140;2024-01-27T08:47:57;7.13;;;3.60;;
83465;SDS011;73393;51.946;20.140;2024-01-27T08:50:23;17.57;;;7.53;;
83465;SDS011;73393;51.946;20.140;2024-01-27T08:52:49;14.47;;;6.47;;
83465;SDS011;73393;51.946;20.140;2024-01-27T08:55:15;11.77;;;5.33;;
83465;SDS011;73393;51.946;20.140;2024-01-27T08:57:43;10.77;;;5.80;;
83465;SDS011;73393;51.946;20.140;2024-01-27T09:00:10;9.63;;;4.63;;
83465;SDS011;73393;51.946;20.140;2024-01-27T09:02:38;6.30;;;3.30;;
83465;SDS011;73393;51.946;20.140;2024-01-27T09:05:03;6.80;;;3.70;;
83465;SDS011;73393;51.946;20.140;2024-01-27T09:07:30;9.43;;;3.90;;
83465;SDS011;73393;51.946;20.140;2024-01-27T09:09:55;9.80;;;5.20;;
83465;SDS011;73393;51.946;20.140;2024-01-27T09:12:21;8.13;;;4.90;;
83465;SDS011;73393;51.946;20.140;2024-01-27T09:14:46;8.93;;;3.83;;
83465;SDS011;73393;51.946;20.140;2024-01-27T09:17:12;9.47;;;4.10;;
83465;SDS011;73393;51.946;20.140;2024-01-27T09:19:38;9.33;;;4.07;;
83465;SDS011;73393;51.946;20.140;2024-01-27T09:22:03;14.63;;;5.63;;
83465;SDS011;73393;51.946;20.140;2024-01-27T09:24:29;10.50;;;4.60;;
83465;SDS011;73393;51.946;20.140;2024-01-27T09:26:54;8.53;;;4.10;;
83465;SDS011;73393;51.946;20.140;2024-01-27T09:29:20;7.83;;;3.23;;
83465;SDS011;73393;51.946;20.140;2024-01-27T09:31:46;8.07;;;3.93;;
83465;SDS011;73393;51.946;20.140;2024-01-27T09:34:11;9.40;;;4.00;;
83465;SDS011;73393;51.946;20.140;2024-01-27T09:36:37;9.20;;;4.43;;
83465;SDS011;73393;51.946;20.140;2024-01-27T09:39:02;10.03;;;4.90;;
83465;SDS011;73393;51.946;20.140;2024-01-27T09:41:31;15.57;;;4.90;;
83465;SDS011;73393;51.946;20.140;2024-01-27T09:43:58;10.20;;;5.50;;
83465;SDS011;73393;51.946;20.140;2024-01-27T09:46:28;7.20;;;3.30;;
83465;SDS011;73393;51.946;20.140;2024-01-27T09:48:55;10.67;;;5.83;;
83465;SDS011;73393;51.946;20.140;2024-01-27T09:51:21;6.33;;;4.03;;
83465;SDS011;73393;51.946;20.140;2024-01-27T09:53:47;10.17;;;6.13;;
83465;SDS011;73393;51.946;20.140;2024-01-27T09:56:15;17.70;;;8.63;;
83465;SDS011;73393;51.946;20.140;2024-01-27T09:58:43;8.47;;;3.80;;
83465;SDS011;73393;51.946;20.140;2024-01-27T10:01:12;10.23;;;4.23;;
83465;SDS011;73393;51.946;20.140;2024-01-27T10:03:39;13.50;;;7.00;;
83465;SDS011;73393;51.946;20.140;2024-01-27T10:06:07;10.67;;;6.23;;
83465;SDS011;73393;51.946;20.140;2024-01-27T10:08:34;8.57;;;4.00;;
83465;SDS011;73393;51.946;20.140;2024-01-27T10:11:00;8.27;;;4.97;;
83465;SDS011;73393;51.946;20.140;2024-01-27T10:13:32;10.83;;;4.80;;
83465;SDS011;73393;51.946;20.140;2024-01-27T10:15:59;16.00;;;8.77;;
83465;SDS011;73393;51.946;20.140;2024-01-27T10:18:29;9.83;;;5.03;;
83465;SDS011;73393;51.946;20.140;2024-01-27T10:20:55;12.27;;;6.70;;
83465;SDS011;73393;51.946;20.140;2024-01-27T10:23:21;18.17;;;9.03;;
83465;SDS011;73393;51.946;20.140;2024-01-27T10:25:47;10.90;;;6.57;;
83465;SDS011;73393;51.946;20.140;2024-01-27T10:28:12;16.33;;;6.90;;
83465;SDS011;73393;51.946;20.140;2024-01-27T10:30:38;9.83;;;5.30;;
83465;SDS011;73393;51.946;20.140;2024-01-27T10:33:04;11.50;;;5.77;;
83465;SDS011;73393;51.946;20.140;2024-01-27T10:35:32;8.93;;;4.67;;
83465;SDS011;73393;51.946;20.140;2024-01-27T10:37:58;8.17;;;4.47;;
83465;SDS011;73393;51.946;20.140;2024-01-27T10:40:23;11.90;;;5.47;;
83465;SDS011;73393;51.946;20.140;2024-01-27T10:43:22;11.23;;;4.93;;
83465;SDS011;73393;51.946;20.140;2024-01-27T10:45:43;8.17;;;4.00;;
83465;SDS011;73393;51.946;20.140;2024-01-27T10:48:09;5.43;;;3.13;;
83465;SDS011;73393;51.946;20.140;2024-01-27T10:50:36;8.70;;;3.87;;
83465;SDS011;73393;51.946;20.140;2024-01-27T10:53:08;9.53;;;4.27;;
83465;SDS011;73393;51.946;20.140;2024-01-27T10:58:01;6.77;;;3.60;;
83465;SDS011;73393;51.946;20.140;2024-01-27T11:00:28;6.00;;;3.13;;
83465;SDS011;73393;51.946;20.140;2024-01-27T11:02:57;12.50;;;7.43;;
83465;SDS011;73393;51.946;20.140;2024-01-27T11:05:24;9.50;;;4.27;;
83465;SDS011;73393;51.946;20.140;2024-01-27T11:07:49;7.57;;;5.17;;
83465;SDS011;73393;51.946;20.140;2024-01-27T11:10:17;7.60;;;4.70;;
83465;SDS011;73393;51.946;20.140;2024-01-27T11:12:43;9.10;;;4.33;;
83465;SDS011;73393;51.946;20.140;2024-01-27T11:15:09;9.60;;;6.27;;
83465;SDS011;73393;51.946;20.140;2024-01-27T11:17:39;10.13;;;6.53;;
83465;SDS011;73393;51.946;20.140;2024-01-27T11:20:07;7.13;;;4.60;;
83465;SDS011;73393;51.946;20.140;2024-01-27T11:22:33;10.53;;;6.20;;
83465;SDS011;73393;51.946;20.140;2024-01-27T11:27:38;11.57;;;5.63;;
83465;SDS011;73393;51.946;20.140;2024-01-27T11:30:07;9.67;;;5.50;;
83465;SDS011;73393;51.946;20.140;2024-01-27T11:32:54;13.93;;;6.23;;
83465;SDS011;73393;51.946;20.140;2024-01-27T11:35:21;16.87;;;9.90;;
83465;SDS011;73393;51.946;20.140;2024-01-27T11:37:47;15.67;;;9.37;;
83465;SDS011;73393;51.946;20.140;2024-01-27T11:40:13;16.57;;;7.13;;
83465;SDS011;73393;51.946;20.140;2024-01-27T11:42:42;16.10;;;8.43;;
83465;SDS011;73393;51.946;20.140;2024-01-27T11:45:08;11.43;;;6.20;;
83465;SDS011;73393;51.946;20.140;2024-01-27T11:47:34;6.33;;;4.17;;
83465;SDS011;73393;51.946;20.140;2024-01-27T11:50:01;9.30;;;5.10;;
83465;SDS011;73393;51.946;20.140;2024-01-27T11:52:28;13.03;;;4.93;;
83465;SDS011;73393;51.946;20.140;2024-01-27T11:54:57;6.70;;;3.43;;
83465;SDS011;73393;51.946;20.140;2024-01-27T11:57:24;9.37;;;5.10;;
83465;SDS011;73393;51.946;20.140;2024-01-27T11:59:50;11.67;;;5.87;;
83465;SDS011;73393;51.946;20.140;2024-01-27T12:02:17;5.20;;;3.67;;
83465;SDS011;73393;51.946;20.140;2024-01-27T12:04:43;6.00;;;3.27;;
83465;SDS011;73393;51.946;20.140;2024-01-27T12:07:09;5.23;;;3.50;;
83465;SDS011;73393;51.946;20.140;2024-01-27T12:09:37;7.27;;;3.10;;
83465;SDS011;73393;51.946;20.140;2024-01-27T12:12:06;6.87;;;3.60;;
83465;SDS011;73393;51.946;20.140;2024-01-27T12:14:47;7.83;;;4.20;;
83465;SDS011;73393;51.946;20.140;2024-01-27T12:17:13;7.83;;;3.60;;
83465;SDS011;73393;51.946;20.140;2024-01-27T12:19:45;8.77;;;4.33;;
83465;SDS011;73393;51.946;20.140;2024-01-27T12:22:25;7.57;;;4.60;;
83465;SDS011;73393;51.946;20.140;2024-01-27T12:24:52;9.67;;;5.67;;
83465;SDS011;73393;51.946;20.140;2024-01-27T12:27:18;9.33;;;5.13;;
83465;SDS011;73393;51.946;20.140;2024-01-27T12:29:45;11.40;;;6.10;;
83465;SDS011;73393;51.946;20.140;2024-01-27T12:32:14;7.87;;;4.20;;
83465;SDS011;73393;51.946;20.140;2024-01-27T12:34:40;7.17;;;4.57;;
83465;SDS011;73393;51.946;20.140;2024-01-27T12:37:07;10.27;;;5.37;;
83465;SDS011;73393;51.946;20.140;2024-01-27T12:39:34;4.80;;;3.30;;
83465;SDS011;73393;51.946;20.140;2024-01-27T12:41:59;5.97;;;3.33;;
83465;SDS011;73393;51.946;20.140;2024-01-27T12:44:25;12.33;;;4.57;;
83465;SDS011;73393;51.946;20.140;2024-01-27T12:46:50;10.03;;;4.30;;
83465;SDS011;73393;51.946;20.140;2024-01-27T12:49:16;9.70;;;5.70;;
83465;SDS011;73393;51.946;20.140;2024-01-27T12:51:42;7.77;;;5.50;;
83465;SDS011;73393;51.946;20.140;2024-01-27T12:54:09;14.40;;;8.50;;
83465;SDS011;73393;51.946;20.140;2024-01-27T12:56:34;7.53;;;4.37;;
83465;SDS011;73393;51.946;20.140;2024-01-27T12:59:00;15.70;;;7.73;;
83465;SDS011;73393;51.946;20.140;2024-01-27T13:01:26;10.47;;;5.40;;
83465;SDS011;73393;51.946;20.140;2024-01-27T13:03:52;9.20;;;5.63;;
83465;SDS011;73393;51.946;20.140;2024-01-27T13:06:17;7.90;;;4.97;;
83465;SDS011;73393;51.946;20.140;2024-01-27T13:08:43;42.17;;;19.50;;
83465;SDS011;73393;51.946;20.140;2024-01-27T13:11:09;8.80;;;5.57;;
83465;SDS011;73393;51.946;20.140;2024-01-27T13:13:37;12.80;;;7.20;;
83465;SDS011;73393;51.946;20.140;2024-01-27T13:16:05;15.93;;;8.57;;
83465;SDS011;73393;51.946;20.140;2024-01-27T13:18:30;9.53;;;6.07;;
83465;SDS011;73393;51.946;20.140;2024-01-27T13:20:56;11.80;;;7.53;;
83465;SDS011;73393;51.946;20.140;2024-01-27T13:23:22;13.43;;;9.87;;
83465;SDS011;73393;51.946;20.140;2024-01-27T13:25:47;11.93;;;7.53;;
83465;SDS011;73393;51.946;20.140;2024-01-27T13:28:14;14.27;;;6.90;;
83465;SDS011;73393;51.946;20.140;2024-01-27T13:30:40;10.27;;;5.80;;
83465;SDS011;73393;51.946;20.140;2024-01-27T13:33:06;13.60;;;6.97;;
83465;SDS011;73393;51.946;20.140;2024-01-27T13:35:32;14.40;;;7.93;;
83465;SDS011;73393;51.946;20.140;2024-01-27T13:37:58;13.90;;;7.67;;
83465;SDS011;73393;51.946;20.140;2024-01-27T13:40:23;12.30;;;6.53;;
83465;SDS011;73393;51.946;20.140;2024-01-27T13:42:49;9.87;;;5.60;;
83465;SDS011;73393;51.946;20.140;2024-01-27T13:45:18;10.33;;;5.73;;
83465;SDS011;73393;51.946;20.140;2024-01-27T13:47:43;10.33;;;5.27;;
83465;SDS011;73393;51.946;20.140;2024-01-27T13:50:09;13.47;;;7.40;;
83465;SDS011;73393;51.946;20.140;2024-01-27T13:52:36;12.87;;;6.97;;
83465;SDS011;73393;51.946;20.140;2024-01-27T13:55:02;9.37;;;5.27;;
83465;SDS011;73393;51.946;20.140;2024-01-27T13:57:27;8.33;;;4.60;;
83465;SDS011;73393;51.946;20.140;2024-01-27T13:59:53;10.20;;;7.23;;
83465;SDS011;73393;51.946;20.140;2024-01-27T14:02:19;8.00;;;5.63;;
83465;SDS011;73393;51.946;20.140;2024-01-27T14:04:44;9.77;;;5.40;;
83465;SDS011;73393;51.946;20.140;2024-01-27T14:07:10;10.27;;;5.37;;
83465;SDS011;73393;51.946;20.140;2024-01-27T14:09:35;10.63;;;5.70;;
83465;SDS011;73393;51.946;20.140;2024-01-27T14:12:01;8.23;;;4.80;;
83465;SDS011;73393;51.946;20.140;2024-01-27T14:14:27;12.70;;;4.53;;
83465;SDS011;73393;51.946;20.140;2024-01-27T14:16:53;6.33;;;4.70;;
83465;SDS011;73393;51.946;20.140;2024-01-27T14:19:19;6.13;;;3.70;;
83465;SDS011;73393;51.946;20.140;2024-01-27T14:21:45;6.60;;;4.00;;
83465;SDS011;73393;51.946;20.140;2024-01-27T14:24:10;6.00;;;3.03;;
83465;SDS011;73393;51.946;20.140;2024-01-27T14:26:36;5.53;;;2.50;;
83465;SDS011;73393;51.946;20.140;2024-01-27T14:29:02;8.03;;;4.80;;
83465;SDS011;73393;51.946;20.140;2024-01-27T14:31:29;9.27;;;4.53;;